5CO2 weather

Mc Kee Medical Center Heliport
Loveland, Colorado, United States

Public forecast

Using degrees Fahrenheit for public forecast. Weather courtesy of forecast.io.

Closest aviation weather report (METAR) to Mc Kee Medical Center Heliport

Closest report is Northern Colorado Regional Airport, 3.4 nm (6.3 km) NNE. Retrieved 2020/02/24 20:56 UTC (16 minutes ago):

KFNL 242056Z AUTO 33018G23KT 10SM CLR 02/M12 A2990 RMK AO2 PK WND 33033/2013 SLP140 T00221117 51003 FZRANO

Closest aviation forecast (TAF) to Mc Kee Medical Center Heliport

Closest forecast is Rocky Mountain Metropolitan Airport, 29.9 nm (55.3 km) S. Retrieved 2020/02/24 18:30 UTC (3 hours ago):

TAF KBJC 241727Z 2418/2518 28015G25KT P6SM SCT070 BKN120 FM241900 30022G32KT P6SM SCT080 BKN180 FM250000 32015KT P6SM SCT100 BKN150 FM250200 VRB06KT P6SM SCT100 BKN150 FM251500 35022G34KT P6SM SCT040 BKN080 TEMPO 2516/2518 2SM -SN SCT010 OVC030